KLGA/LGA METAR and TAF weather

Enter ICAO airport designator
Station Type Date Time Source
KLGA METAR 2022/06/28 15:51 UTC NOAA

KLGA 281551Z 29004KT 10SM FEW060 FEW250 23/08 A3014 RMK AO2 SLP207 T02330078


Station Type Date Time Source
KLGA Decoded METAR 2022/06/28 15:51 UTC NOAA

NEW YORK LA GUARDIA AIRPORT , NY, United States (KLGA) 40-47N 73-53W 11M
Jun 28, 2022 - 11:51 AM EDT / 2022.06.28 1551 UTC
Wind: from the WNW (290 degrees) at 5 MPH (4 KT):0
Visibility: 10 mile(s):0
Sky conditions: mostly clear
Temperature: 73.9 F (23.3 C)
Dew Point: 46.0 F (7.8 C)
Relative Humidity: 36%
Pressure (altimeter): 30.14 in. Hg (1020 hPa)
ob: KLGA 281551Z 29004KT 10SM FEW060 FEW250 23/08 A3014 RMK AO2 SLP207 T02330078
cycle: 16

Station Type Date Time Source
KLGA TAF 2022/06/28 14:16 UTC NOAA

TAF
AMD KLGA 281414Z 2814/2918 35010KT P6SM BKN050
FM281700 31008KT P6SM FEW050 SCT250
FM282200 27007KT P6SM SCT050 SCT250
FM290200 24005KT P6SM FEW050 FEW250
FM290600 VRB04KT P6SM SCT250
FM291500 23008KT P6SM FEW050 SCT250

Example: see airport list